sensor_id;sensor_type;location;lat;lon;timestamp;P1;durP1;ratioP1;P2;durP2;ratioP2
12348;SDS011;5974;42.710;27.258;2022-08-21T00:00:57;13.30;;;12.10;;
12348;SDS011;5974;42.710;27.258;2022-08-21T00:03:25;12.67;;;11.47;;
12348;SDS011;5974;42.710;27.258;2022-08-21T00:05:52;13.53;;;11.73;;
12348;SDS011;5974;42.710;27.258;2022-08-21T00:08:18;14.60;;;13.17;;
12348;SDS011;5974;42.710;27.258;2022-08-21T00:10:45;16.20;;;13.00;;
12348;SDS011;5974;42.710;27.258;2022-08-21T00:13:13;14.13;;;12.77;;
12348;SDS011;5974;42.710;27.258;2022-08-21T00:15:40;14.40;;;12.93;;
12348;SDS011;5974;42.710;27.258;2022-08-21T00:18:07;14.97;;;13.57;;
12348;SDS011;5974;42.710;27.258;2022-08-21T00:20:36;14.80;;;13.20;;
12348;SDS011;5974;42.710;27.258;2022-08-21T00:23:04;14.57;;;13.20;;
12348;SDS011;5974;42.710;27.258;2022-08-21T00:25:31;13.93;;;12.73;;
12348;SDS011;5974;42.710;27.258;2022-08-21T00:27:57;13.87;;;12.57;;
12348;SDS011;5974;42.710;27.258;2022-08-21T00:30:24;13.73;;;12.27;;
12348;SDS011;5974;42.710;27.258;2022-08-21T00:32:52;13.43;;;12.30;;
12348;SDS011;5974;42.710;27.258;2022-08-21T00:35:19;14.23;;;12.43;;
12348;SDS011;5974;42.710;27.258;2022-08-21T00:37:48;13.77;;;12.33;;
12348;SDS011;5974;42.710;27.258;2022-08-21T00:40:16;12.30;;;11.30;;
12348;SDS011;5974;42.710;27.258;2022-08-21T00:42:43;12.53;;;11.43;;
12348;SDS011;5974;42.710;27.258;2022-08-21T00:45:10;12.63;;;11.53;;
12348;SDS011;5974;42.710;27.258;2022-08-21T00:47:37;12.80;;;11.80;;
12348;SDS011;5974;42.710;27.258;2022-08-21T00:50:06;13.23;;;11.97;;
12348;SDS011;5974;42.710;27.258;2022-08-21T00:52:33;14.23;;;12.83;;
12348;SDS011;5974;42.710;27.258;2022-08-21T00:55:03;14.30;;;13.00;;
12348;SDS011;5974;42.710;27.258;2022-08-21T00:57:32;13.40;;;12.20;;
12348;SDS011;5974;42.710;27.258;2022-08-21T01:00:00;13.87;;;12.47;;
12348;SDS011;5974;42.710;27.258;2022-08-21T01:02:27;12.80;;;11.70;;
12348;SDS011;5974;42.710;27.258;2022-08-21T01:04:54;13.37;;;12.00;;
12348;SDS011;5974;42.710;27.258;2022-08-21T01:07:20;13.47;;;12.10;;
12348;SDS011;5974;42.710;27.258;2022-08-21T01:09:47;12.73;;;11.70;;
12348;SDS011;5974;42.710;27.258;2022-08-21T01:12:15;13.10;;;12.00;;
12348;SDS011;5974;42.710;27.258;2022-08-21T01:14:42;12.10;;;11.00;;
12348;SDS011;5974;42.710;27.258;2022-08-21T01:17:09;13.53;;;12.33;;
12348;SDS011;5974;42.710;27.258;2022-08-21T01:19:36;13.87;;;12.57;;
12348;SDS011;5974;42.710;27.258;2022-08-21T01:22:05;14.07;;;12.80;;
12348;SDS011;5974;42.710;27.258;2022-08-21T01:24:31;14.17;;;12.77;;
12348;SDS011;5974;42.710;27.258;2022-08-21T01:26:58;14.20;;;12.80;;
12348;SDS011;5974;42.710;27.258;2022-08-21T01:29:28;13.67;;;12.47;;
12348;SDS011;5974;42.710;27.258;2022-08-21T01:31:56;15.20;;;13.60;;
12348;SDS011;5974;42.710;27.258;2022-08-21T01:34:23;14.70;;;13.33;;
12348;SDS011;5974;42.710;27.258;2022-08-21T01:36:50;14.70;;;13.50;;
12348;SDS011;5974;42.710;27.258;2022-08-21T01:39:18;16.27;;;14.73;;
12348;SDS011;5974;42.710;27.258;2022-08-21T01:41:45;16.93;;;15.17;;
12348;SDS011;5974;42.710;27.258;2022-08-21T01:44:12;15.00;;;13.63;;
12348;SDS011;5974;42.710;27.258;2022-08-21T01:46:38;16.03;;;14.40;;
12348;SDS011;5974;42.710;27.258;2022-08-21T01:49:05;16.23;;;14.73;;
12348;SDS011;5974;42.710;27.258;2022-08-21T01:51:32;15.57;;;14.17;;
12348;SDS011;5974;42.710;27.258;2022-08-21T01:53:58;15.93;;;14.43;;
12348;SDS011;5974;42.710;27.258;2022-08-21T01:56:26;15.87;;;14.47;;
12348;SDS011;5974;42.710;27.258;2022-08-21T01:58:53;16.47;;;14.80;;
12348;SDS011;5974;42.710;27.258;2022-08-21T02:01:20;17.00;;;15.23;;
12348;SDS011;5974;42.710;27.258;2022-08-21T02:03:47;17.10;;;15.50;;
12348;SDS011;5974;42.710;27.258;2022-08-21T02:06:14;17.07;;;15.47;;
12348;SDS011;5974;42.710;27.258;2022-08-21T02:08:43;16.60;;;15.10;;
12348;SDS011;5974;42.710;27.258;2022-08-21T02:11:09;16.27;;;14.77;;
12348;SDS011;5974;42.710;27.258;2022-08-21T02:13:37;16.47;;;14.83;;
12348;SDS011;5974;42.710;27.258;2022-08-21T02:16:04;15.93;;;14.63;;
12348;SDS011;5974;42.710;27.258;2022-08-21T02:18:31;15.30;;;13.93;;
12348;SDS011;5974;42.710;27.258;2022-08-21T02:20:58;15.03;;;13.73;;
12348;SDS011;5974;42.710;27.258;2022-08-21T02:23:25;14.47;;;13.27;;
12348;SDS011;5974;42.710;27.258;2022-08-21T02:25:51;14.33;;;13.13;;
12348;SDS011;5974;42.710;27.258;2022-08-21T02:28:18;14.03;;;12.63;;
12348;SDS011;5974;42.710;27.258;2022-08-21T02:30:46;13.50;;;12.37;;
12348;SDS011;5974;42.710;27.258;2022-08-21T02:33:13;15.03;;;10.80;;
12348;SDS011;5974;42.710;27.258;2022-08-21T02:35:40;12.87;;;11.67;;
12348;SDS011;5974;42.710;27.258;2022-08-21T02:38:09;12.80;;;11.60;;
12348;SDS011;5974;42.710;27.258;2022-08-21T02:40:37;12.23;;;11.07;;
12348;SDS011;5974;42.710;27.258;2022-08-21T02:43:06;13.07;;;11.87;;
12348;SDS011;5974;42.710;27.258;2022-08-21T02:45:33;12.30;;;11.10;;
12348;SDS011;5974;42.710;27.258;2022-08-21T02:48:02;12.40;;;11.37;;
12348;SDS011;5974;42.710;27.258;2022-08-21T02:50:30;12.37;;;11.23;;
12348;SDS011;5974;42.710;27.258;2022-08-21T02:52:57;12.13;;;11.03;;
12348;SDS011;5974;42.710;27.258;2022-08-21T02:55:25;12.90;;;11.83;;
12348;SDS011;5974;42.710;27.258;2022-08-21T02:57:52;12.03;;;10.93;;
12348;SDS011;5974;42.710;27.258;2022-08-21T03:00:19;11.67;;;10.40;;
12348;SDS011;5974;42.710;27.258;2022-08-21T03:02:46;11.87;;;10.70;;
12348;SDS011;5974;42.710;27.258;2022-08-21T03:05:14;12.33;;;11.03;;
12348;SDS011;5974;42.710;27.258;2022-08-21T03:07:41;11.60;;;10.60;;
12348;SDS011;5974;42.710;27.258;2022-08-21T03:10:08;11.70;;;10.70;;
12348;SDS011;5974;42.710;27.258;2022-08-21T03:12:35;12.03;;;10.93;;
12348;SDS011;5974;42.710;27.258;2022-08-21T03:15:01;11.10;;;10.10;;
12348;SDS011;5974;42.710;27.258;2022-08-21T03:17:28;14.33;;;10.70;;
12348;SDS011;5974;42.710;27.258;2022-08-21T03:19:55;10.80;;;9.80;;
12348;SDS011;5974;42.710;27.258;2022-08-21T03:22:23;11.00;;;10.07;;
12348;SDS011;5974;42.710;27.258;2022-08-21T03:24:50;13.77;;;10.77;;
12348;SDS011;5974;42.710;27.258;2022-08-21T03:27:17;12.67;;;9.97;;
12348;SDS011;5974;42.710;27.258;2022-08-21T03:29:43;9.57;;;8.70;;
12348;SDS011;5974;42.710;27.258;2022-08-21T03:32:11;9.70;;;8.90;;
12348;SDS011;5974;42.710;27.258;2022-08-21T03:34:38;9.50;;;8.60;;
12348;SDS011;5974;42.710;27.258;2022-08-21T03:37:05;9.13;;;8.33;;
12348;SDS011;5974;42.710;27.258;2022-08-21T03:39:34;8.83;;;7.80;;
12348;SDS011;5974;42.710;27.258;2022-08-21T03:42:00;8.57;;;7.60;;
12348;SDS011;5974;42.710;27.258;2022-08-21T03:44:27;8.20;;;7.40;;
12348;SDS011;5974;42.710;27.258;2022-08-21T03:46:55;8.27;;;7.43;;
12348;SDS011;5974;42.710;27.258;2022-08-21T03:49:22;9.00;;;8.07;;
12348;SDS011;5974;42.710;27.258;2022-08-21T03:51:48;8.83;;;7.40;;
12348;SDS011;5974;42.710;27.258;2022-08-21T03:54:15;11.17;;;7.67;;
12348;SDS011;5974;42.710;27.258;2022-08-21T03:56:43;8.53;;;7.10;;
12348;SDS011;5974;42.710;27.258;2022-08-21T03:59:10;8.00;;;7.30;;
12348;SDS011;5974;42.710;27.258;2022-08-21T04:01:37;8.23;;;7.10;;
12348;SDS011;5974;42.710;27.258;2022-08-21T04:04:04;9.77;;;6.53;;
12348;SDS011;5974;42.710;27.258;2022-08-21T04:06:30;7.63;;;7.00;;
12348;SDS011;5974;42.710;27.258;2022-08-21T04:08:57;9.07;;;7.17;;
12348;SDS011;5974;42.710;27.258;2022-08-21T04:11:24;6.87;;;6.37;;
12348;SDS011;5974;42.710;27.258;2022-08-21T04:13:52;10.90;;;6.83;;
12348;SDS011;5974;42.710;27.258;2022-08-21T04:16:18;9.43;;;7.53;;
12348;SDS011;5974;42.710;27.258;2022-08-21T04:18:45;7.37;;;6.77;;
12348;SDS011;5974;42.710;27.258;2022-08-21T04:21:12;9.10;;;6.20;;
12348;SDS011;5974;42.710;27.258;2022-08-21T04:23:38;9.10;;;7.03;;
12348;SDS011;5974;42.710;27.258;2022-08-21T04:26:05;7.00;;;6.30;;
12348;SDS011;5974;42.710;27.258;2022-08-21T04:28:32;7.57;;;6.60;;
12348;SDS011;5974;42.710;27.258;2022-08-21T04:31:00;7.20;;;6.30;;
12348;SDS011;5974;42.710;27.258;2022-08-21T04:33:26;7.03;;;6.33;;
12348;SDS011;5974;42.710;27.258;2022-08-21T04:35:53;8.17;;;6.50;;
12348;SDS011;5974;42.710;27.258;2022-08-21T04:38:20;7.87;;;5.93;;
12348;SDS011;5974;42.710;27.258;2022-08-21T04:40:47;8.03;;;6.13;;
12348;SDS011;5974;42.710;27.258;2022-08-21T04:43:14;7.57;;;6.10;;
12348;SDS011;5974;42.710;27.258;2022-08-21T04:45:42;8.73;;;5.93;;
12348;SDS011;5974;42.710;27.258;2022-08-21T04:48:12;6.73;;;5.80;;
12348;SDS011;5974;42.710;27.258;2022-08-21T04:50:39;6.77;;;6.07;;
12348;SDS011;5974;42.710;27.258;2022-08-21T04:53:09;9.13;;;5.83;;
12348;SDS011;5974;42.710;27.258;2022-08-21T04:55:37;6.37;;;5.80;;
12348;SDS011;5974;42.710;27.258;2022-08-21T04:58:04;7.63;;;5.70;;
12348;SDS011;5974;42.710;27.258;2022-08-21T05:00:31;5.87;;;5.23;;
12348;SDS011;5974;42.710;27.258;2022-08-21T05:02:57;7.83;;;5.27;;
12348;SDS011;5974;42.710;27.258;2022-08-21T05:05:28;9.05;;;5.13;;
12348;SDS011;5974;42.710;27.258;2022-08-21T05:07:55;7.18;;;5.50;;
12348;SDS011;5974;42.710;27.258;2022-08-21T05:10:23;6.97;;;5.50;;
12348;SDS011;5974;42.710;27.258;2022-08-21T05:12:50;7.55;;;5.22;;
12348;SDS011;5974;42.710;27.258;2022-08-21T05:15:16;6.95;;;5.13;;
12348;SDS011;5974;42.710;27.258;2022-08-21T05:17:43;9.70;;;5.50;;
12348;SDS011;5974;42.710;27.258;2022-08-21T05:20:11;8.40;;;5.47;;
12348;SDS011;5974;42.710;27.258;2022-08-21T05:22:39;6.20;;;5.43;;
12348;SDS011;5974;42.710;27.258;2022-08-21T05:25:07;9.10;;;5.53;;
12348;SDS011;5974;42.710;27.258;2022-08-21T05:27:34;13.30;;;5.43;;
12348;SDS011;5974;42.710;27.258;2022-08-21T05:30:00;10.07;;;5.60;;
12348;SDS011;5974;42.710;27.258;2022-08-21T05:32:27;8.13;;;5.93;;
12348;SDS011;5974;42.710;27.258;2022-08-21T05:34:54;6.70;;;5.10;;
12348;SDS011;5974;42.710;27.258;2022-08-21T05:37:21;8.98;;;5.45;;
12348;SDS011;5974;42.710;27.258;2022-08-21T05:39:48;6.85;;;5.90;;
12348;SDS011;5974;42.710;27.258;2022-08-21T05:42:15;12.20;;;5.30;;
12348;SDS011;5974;42.710;27.258;2022-08-21T05:44:42;5.85;;;4.82;;
12348;SDS011;5974;42.710;27.258;2022-08-21T05:47:09;8.35;;;5.05;;
12348;SDS011;5974;42.710;27.258;2022-08-21T05:49:36;6.97;;;5.60;;
12348;SDS011;5974;42.710;27.258;2022-08-21T05:52:03;7.88;;;5.03;;
12348;SDS011;5974;42.710;27.258;2022-08-21T05:54:30;8.27;;;5.50;;
12348;SDS011;5974;42.710;27.258;2022-08-21T05:56:58;7.20;;;4.80;;
12348;SDS011;5974;42.710;27.258;2022-08-21T05:59:25;9.52;;;5.03;;
12348;SDS011;5974;42.710;27.258;2022-08-21T06:01:52;6.30;;;4.80;;
12348;SDS011;5974;42.710;27.258;2022-08-21T06:04:19;5.97;;;4.93;;
12348;SDS011;5974;42.710;27.258;2022-08-21T06:06:46;5.65;;;4.85;;
12348;SDS011;5974;42.710;27.258;2022-08-21T06:09:13;5.50;;;4.28;;
12348;SDS011;5974;42.710;27.258;2022-08-21T06:11:40;6.78;;;4.38;;
12348;SDS011;5974;42.710;27.258;2022-08-21T06:14:08;9.02;;;4.75;;
12348;SDS011;5974;42.710;27.258;2022-08-21T06:16:34;6.78;;;4.68;;
12348;SDS011;5974;42.710;27.258;2022-08-21T06:19:01;4.70;;;4.30;;
12348;SDS011;5974;42.710;27.258;2022-08-21T06:21:27;5.32;;;4.15;;
12348;SDS011;5974;42.710;27.258;2022-08-21T06:23:54;5.47;;;4.97;;
12348;SDS011;5974;42.710;27.258;2022-08-21T06:26:20;4.85;;;4.15;;
12348;SDS011;5974;42.710;27.258;2022-08-21T06:28:48;5.15;;;4.60;;
12348;SDS011;5974;42.710;27.258;2022-08-21T06:31:17;7.78;;;4.15;;
12348;SDS011;5974;42.710;27.258;2022-08-21T06:33:44;4.65;;;4.10;;
12348;SDS011;5974;42.710;27.258;2022-08-21T06:36:11;5.97;;;4.38;;
12348;SDS011;5974;42.710;27.258;2022-08-21T06:38:38;4.72;;;4.32;;
12348;SDS011;5974;42.710;27.258;2022-08-21T06:41:05;5.70;;;4.72;;
12348;SDS011;5974;42.710;27.258;2022-08-21T06:43:32;6.05;;;4.20;;
12348;SDS011;5974;42.710;27.258;2022-08-21T06:45:58;4.30;;;4.00;;
12348;SDS011;5974;42.710;27.258;2022-08-21T06:48:26;4.95;;;4.45;;
12348;SDS011;5974;42.710;27.258;2022-08-21T06:50:54;11.38;;;7.45;;
12348;SDS011;5974;42.710;27.258;2022-08-21T06:53:21;5.47;;;4.40;;
12348;SDS011;5974;42.710;27.258;2022-08-21T06:55:48;5.35;;;4.45;;
12348;SDS011;5974;42.710;27.258;2022-08-21T06:58:14;5.75;;;4.10;;
12348;SDS011;5974;42.710;27.258;2022-08-21T07:00:42;5.45;;;4.57;;
12348;SDS011;5974;42.710;27.258;2022-08-21T07:03:15;5.45;;;4.47;;
12348;SDS011;5974;42.710;27.258;2022-08-21T07:05:43;17.77;;;5.32;;
12348;SDS011;5974;42.710;27.258;2022-08-21T07:08:10;4.68;;;4.32;;
12348;SDS011;5974;42.710;27.258;2022-08-21T07:10:36;4.55;;;4.10;;
12348;SDS011;5974;42.710;27.258;2022-08-21T07:13:03;6.00;;;4.53;;
12348;SDS011;5974;42.710;27.258;2022-08-21T07:15:30;4.75;;;4.10;;
12348;SDS011;5974;42.710;27.258;2022-08-21T07:17:57;5.15;;;3.97;;
12348;SDS011;5974;42.710;27.258;2022-08-21T07:20:24;5.03;;;4.47;;
12348;SDS011;5974;42.710;27.258;2022-08-21T07:22:52;7.35;;;5.60;;
12348;SDS011;5974;42.710;27.258;2022-08-21T07:25:19;5.80;;;5.20;;
12348;SDS011;5974;42.710;27.258;2022-08-21T07:27:45;4.95;;;4.65;;
12348;SDS011;5974;42.710;27.258;2022-08-21T07:30:12;4.95;;;4.45;;
12348;SDS011;5974;42.710;27.258;2022-08-21T07:32:39;5.25;;;4.68;;
12348;SDS011;5974;42.710;27.258;2022-08-21T07:35:05;7.22;;;4.60;;
12348;SDS011;5974;42.710;27.258;2022-08-21T07:37:32;5.78;;;4.57;;
12348;SDS011;5974;42.710;27.258;2022-08-21T07:40:00;4.63;;;4.28;;
12348;SDS011;5974;42.710;27.258;2022-08-21T07:42:27;5.70;;;4.55;;
12348;SDS011;5974;42.710;27.258;2022-08-21T07:44:54;6.00;;;4.40;;
12348;SDS011;5974;42.710;27.258;2022-08-21T07:47:21;5.20;;;4.70;;
12348;SDS011;5974;42.710;27.258;2022-08-21T07:49:47;5.88;;;5.18;;
12348;SDS011;5974;42.710;27.258;2022-08-21T07:52:14;5.55;;;4.57;;
12348;SDS011;5974;42.710;27.258;2022-08-21T07:54:40;4.90;;;4.50;;
12348;SDS011;5974;42.710;27.258;2022-08-21T07:57:08;5.20;;;4.80;;
12348;SDS011;5974;42.710;27.258;2022-08-21T07:59:35;5.22;;;4.72;;
12348;SDS011;5974;42.710;27.258;2022-08-21T08:02:02;7.57;;;5.22;;
12348;SDS011;5974;42.710;27.258;2022-08-21T08:04:28;6.47;;;4.80;;
12348;SDS011;5974;42.710;27.258;2022-08-21T08:06:55;6.30;;;5.00;;
12348;SDS011;5974;42.710;27.258;2022-08-21T08:09:21;5.60;;;5.05;;
12348;SDS011;5974;42.710;27.258;2022-08-21T08:11:48;6.63;;;4.75;;
12348;SDS011;5974;42.710;27.258;2022-08-21T08:14:16;6.15;;;4.50;;
12348;SDS011;5974;42.710;27.258;2022-08-21T08:16:42;10.63;;;5.57;;
12348;SDS011;5974;42.710;27.258;2022-08-21T08:19:09;5.30;;;4.70;;
12348;SDS011;5974;42.710;27.258;2022-08-21T08:21:36;5.90;;;5.28;;
12348;SDS011;5974;42.710;27.258;2022-08-21T08:24:03;5.75;;;4.97;;
12348;SDS011;5974;42.710;27.258;2022-08-21T08:26:30;7.63;;;4.82;;
12348;SDS011;5974;42.710;27.258;2022-08-21T08:28:56;5.60;;;4.63;;
12348;SDS011;5974;42.710;27.258;2022-08-21T08:31:24;5.10;;;4.72;;
12348;SDS011;5974;42.710;27.258;2022-08-21T08:33:51;9.23;;;4.95;;
12348;SDS011;5974;42.710;27.258;2022-08-21T08:36:17;5.32;;;4.82;;
12348;SDS011;5974;42.710;27.258;2022-08-21T08:38:45;5.55;;;4.55;;
12348;SDS011;5974;42.710;27.258;2022-08-21T08:41:13;6.05;;;4.63;;
12348;SDS011;5974;42.710;27.258;2022-08-21T08:43:41;5.72;;;4.68;;
12348;SDS011;5974;42.710;27.258;2022-08-21T08:46:10;6.65;;;4.75;;
12348;SDS011;5974;42.710;27.258;2022-08-21T08:48:41;6.95;;;4.70;;
12348;SDS011;5974;42.710;27.258;2022-08-21T08:51:13;6.05;;;4.78;;
12348;SDS011;5974;42.710;27.258;2022-08-21T08:53:45;5.30;;;4.80;;
12348;SDS011;5974;42.710;27.258;2022-08-21T08:56:12;6.75;;;4.68;;
12348;SDS011;5974;42.710;27.258;2022-08-21T08:58:40;5.30;;;4.80;;
12348;SDS011;5974;42.710;27.258;2022-08-21T09:01:10;6.47;;;4.78;;
12348;SDS011;5974;42.710;27.258;2022-08-21T09:03:40;15.60;;;5.60;;
12348;SDS011;5974;42.710;27.258;2022-08-21T09:06:08;6.07;;;5.07;;
12348;SDS011;5974;42.710;27.258;2022-08-21T09:08:44;5.10;;;4.55;;
12348;SDS011;5974;42.710;27.258;2022-08-21T09:11:15;10.20;;;4.97;;
12348;SDS011;5974;42.710;27.258;2022-08-21T09:13:48;8.45;;;5.88;;
12348;SDS011;5974;42.710;27.258;2022-08-21T09:16:18;7.95;;;4.75;;
12348;SDS011;5974;42.710;27.258;2022-08-21T09:18:52;7.75;;;6.20;;
12348;SDS011;5974;42.710;27.258;2022-08-21T09:21:23;8.93;;;4.80;;
12348;SDS011;5974;42.710;27.258;2022-08-21T09:23:53;6.50;;;5.18;;
12348;SDS011;5974;42.710;27.258;2022-08-21T09:26:23;5.60;;;5.03;;
12348;SDS011;5974;42.710;27.258;2022-08-21T09:28:51;10.15;;;5.43;;
12348;SDS011;5974;42.710;27.258;2022-08-21T09:31:21;12.40;;;5.47;;
12348;SDS011;5974;42.710;27.258;2022-08-21T09:33:48;6.13;;;5.03;;
12348;SDS011;5974;42.710;27.258;2022-08-21T09:36:23;5.75;;;4.93;;
12348;SDS011;5974;42.710;27.258;2022-08-21T09:38:52;5.53;;;4.88;;
12348;SDS011;5974;42.710;27.258;2022-08-21T09:41:25;5.40;;;4.90;;
12348;SDS011;5974;42.710;27.258;2022-08-21T09:43:52;6.90;;;4.97;;
12348;SDS011;5974;42.710;27.258;2022-08-21T09:46:20;6.75;;;5.85;;
12348;SDS011;5974;42.710;27.258;2022-08-21T09:48:47;7.63;;;4.93;;
12348;SDS011;5974;42.710;27.258;2022-08-21T09:51:15;5.78;;;4.70;;
12348;SDS011;5974;42.710;27.258;2022-08-21T09:53:48;5.88;;;5.43;;
12348;SDS011;5974;42.710;27.258;2022-08-21T09:56:17;6.60;;;5.32;;
12348;SDS011;5974;42.710;27.258;2022-08-21T09:59:11;5.00;;;4.57;;
12348;SDS011;5974;42.710;27.258;2022-08-21T10:01:41;5.57;;;4.53;;
12348;SDS011;5974;42.710;27.258;2022-08-21T10:04:08;8.53;;;4.73;;
12348;SDS011;5974;42.710;27.258;2022-08-21T10:06:35;6.80;;;6.00;;
12348;SDS011;5974;42.710;27.258;2022-08-21T10:09:07;5.53;;;5.03;;
12348;SDS011;5974;42.710;27.258;2022-08-21T10:11:34;6.23;;;5.27;;
12348;SDS011;5974;42.710;27.258;2022-08-21T10:14:03;9.30;;;8.40;;
12348;SDS011;5974;42.710;27.258;2022-08-21T10:16:33;7.30;;;6.60;;
12348;SDS011;5974;42.710;27.258;2022-08-21T10:19:07;6.50;;;4.80;;
12348;SDS011;5974;42.710;27.258;2022-08-21T10:21:39;5.40;;;5.00;;
12348;SDS011;5974;42.710;27.258;2022-08-21T10:24:11;5.43;;;4.93;;
12348;SDS011;5974;42.710;27.258;2022-08-21T10:26:41;6.07;;;5.67;;
12348;SDS011;5974;42.710;27.258;2022-08-21T10:29:13;6.83;;;6.27;;
12348;SDS011;5974;42.710;27.258;2022-08-21T10:31:44;6.90;;;5.83;;
12348;SDS011;5974;42.710;27.258;2022-08-21T10:34:17;6.07;;;5.47;;
12348;SDS011;5974;42.710;27.258;2022-08-21T10:36:52;6.07;;;5.57;;
12348;SDS011;5974;42.710;27.258;2022-08-21T10:39:26;6.57;;;5.83;;
12348;SDS011;5974;42.710;27.258;2022-08-21T10:42:02;6.77;;;5.20;;
12348;SDS011;5974;42.710;27.258;2022-08-21T10:44:34;6.57;;;5.93;;
12348;SDS011;5974;42.710;27.258;2022-08-21T10:47:05;6.10;;;5.50;;
12348;SDS011;5974;42.710;27.258;2022-08-21T10:49:41;6.03;;;5.30;;
12348;SDS011;5974;42.710;27.258;2022-08-21T10:52:22;6.63;;;5.40;;
12348;SDS011;5974;42.710;27.258;2022-08-21T10:54:54;6.63;;;5.30;;
12348;SDS011;5974;42.710;27.258;2022-08-21T10:57:25;6.07;;;5.47;;
12348;SDS011;5974;42.710;27.258;2022-08-21T10:59:55;5.53;;;5.03;;
12348;SDS011;5974;42.710;27.258;2022-08-21T11:02:30;6.00;;;5.40;;
12348;SDS011;5974;42.710;27.258;2022-08-21T11:04:59;6.13;;;5.53;;
12348;SDS011;5974;42.710;27.258;2022-08-21T11:07:28;8.07;;;5.20;;
12348;SDS011;5974;42.710;27.258;2022-08-21T11:09:59;9.80;;;5.00;;
12348;SDS011;5974;42.710;27.258;2022-08-21T11:12:30;5.32;;;4.82;;
12348;SDS011;5974;42.710;27.258;2022-08-21T11:15:00;8.38;;;4.55;;
12348;SDS011;5974;42.710;27.258;2022-08-21T11:17:30;5.10;;;4.60;;
12348;SDS011;5974;42.710;27.258;2022-08-21T11:20:01;4.63;;;4.32;;
12348;SDS011;5974;42.710;27.258;2022-08-21T11:22:32;5.50;;;5.00;;
12348;SDS011;5974;42.710;27.258;2022-08-21T11:25:02;5.33;;;4.83;;
12348;SDS011;5974;42.710;27.258;2022-08-21T11:27:30;5.30;;;4.82;;
12348;SDS011;5974;42.710;27.258;2022-08-21T11:29:59;5.90;;;5.13;;
12348;SDS011;5974;42.710;27.258;2022-08-21T11:35:13;5.27;;;4.63;;
12348;SDS011;5974;42.710;27.258;2022-08-21T11:37:45;5.27;;;4.77;;
12348;SDS011;5974;42.710;27.258;2022-08-21T11:40:19;5.35;;;4.70;;
12348;SDS011;5974;42.710;27.258;2022-08-21T11:42:50;6.32;;;4.70;;
12348;SDS011;5974;42.710;27.258;2022-08-21T11:45:19;5.72;;;4.38;;
12348;SDS011;5974;42.710;27.258;2022-08-21T11:47:50;5.83;;;4.50;;
12348;SDS011;5974;42.710;27.258;2022-08-21T11:50:18;5.37;;;4.87;;
12348;SDS011;5974;42.710;27.258;2022-08-21T11:52:47;5.70;;;5.03;;
12348;SDS011;5974;42.710;27.258;2022-08-21T11:55:16;5.83;;;4.73;;
12348;SDS011;5974;42.710;27.258;2022-08-21T11:57:46;6.23;;;4.90;;
12348;SDS011;5974;42.710;27.258;2022-08-21T12:00:16;8.33;;;5.50;;
12348;SDS011;5974;42.710;27.258;2022-08-21T12:02:47;9.27;;;5.33;;
12348;SDS011;5974;42.710;27.258;2022-08-21T12:05:22;8.00;;;5.17;;
12348;SDS011;5974;42.710;27.258;2022-08-21T12:07:59;9.17;;;5.23;;
12348;SDS011;5974;42.710;27.258;2022-08-21T12:10:32;5.33;;;4.83;;
12348;SDS011;5974;42.710;27.258;2022-08-21T12:13:06;8.53;;;4.97;;
12348;SDS011;5974;42.710;27.258;2022-08-21T12:15:34;8.47;;;5.10;;
12348;SDS011;5974;42.710;27.258;2022-08-21T12:18:02;8.67;;;4.80;;
12348;SDS011;5974;42.710;27.258;2022-08-21T12:20:34;5.20;;;4.70;;
12348;SDS011;5974;42.710;27.258;2022-08-21T12:23:03;5.93;;;4.70;;
12348;SDS011;5974;42.710;27.258;2022-08-21T12:25:36;7.13;;;5.27;;
12348;SDS011;5974;42.710;27.258;2022-08-21T12:28:06;7.33;;;4.53;;
12348;SDS011;5974;42.710;27.258;2022-08-21T12:30:37;7.27;;;4.97;;
12348;SDS011;5974;42.710;27.258;2022-08-21T12:33:05;6.20;;;5.20;;
12348;SDS011;5974;42.710;27.258;2022-08-21T12:35:32;7.40;;;4.97;;
12348;SDS011;5974;42.710;27.258;2022-08-21T12:38:00;5.50;;;4.43;;
12348;SDS011;5974;42.710;27.258;2022-08-21T12:40:31;5.53;;;4.83;;
12348;SDS011;5974;42.710;27.258;2022-08-21T12:42:58;6.37;;;5.27;;
12348;SDS011;5974;42.710;27.258;2022-08-21T12:45:27;6.27;;;4.97;;
12348;SDS011;5974;42.710;27.258;2022-08-21T12:47:56;7.87;;;5.00;;
12348;SDS011;5974;42.710;27.258;2022-08-21T12:50:26;7.43;;;4.90;;
12348;SDS011;5974;42.710;27.258;2022-08-21T12:52:57;8.70;;;5.27;;
12348;SDS011;5974;42.710;27.258;2022-08-21T12:55:26;6.93;;;5.10;;
12348;SDS011;5974;42.710;27.258;2022-08-21T12:57:54;8.17;;;5.17;;
12348;SDS011;5974;42.710;27.258;2022-08-21T13:00:22;8.53;;;5.23;;
12348;SDS011;5974;42.710;27.258;2022-08-21T13:02:49;6.47;;;4.53;;
12348;SDS011;5974;42.710;27.258;2022-08-21T13:05:22;7.53;;;4.80;;
12348;SDS011;5974;42.710;27.258;2022-08-21T13:07:50;8.23;;;4.60;;
12348;SDS011;5974;42.710;27.258;2022-08-21T13:10:18;8.23;;;5.00;;
12348;SDS011;5974;42.710;27.258;2022-08-21T13:12:46;9.50;;;5.07;;
12348;SDS011;5974;42.710;27.258;2022-08-21T13:15:13;7.87;;;4.70;;
12348;SDS011;5974;42.710;27.258;2022-08-21T13:17:42;9.03;;;4.50;;
12348;SDS011;5974;42.710;27.258;2022-08-21T13:20:18;6.47;;;4.63;;
12348;SDS011;5974;42.710;27.258;2022-08-21T13:22:47;8.57;;;4.50;;
12348;SDS011;5974;42.710;27.258;2022-08-21T13:25:14;5.70;;;4.87;;
12348;SDS011;5974;42.710;27.258;2022-08-21T13:27:41;8.00;;;4.87;;
12348;SDS011;5974;42.710;27.258;2022-08-21T13:30:10;7.70;;;4.73;;
12348;SDS011;5974;42.710;27.258;2022-08-21T13:32:39;7.13;;;4.73;;
12348;SDS011;5974;42.710;27.258;2022-08-21T13:35:10;5.90;;;5.10;;
12348;SDS011;5974;42.710;27.258;2022-08-21T13:37:38;8.57;;;4.90;;
12348;SDS011;5974;42.710;27.258;2022-08-21T13:40:09;5.37;;;4.90;;
12348;SDS011;5974;42.710;27.258;2022-08-21T13:42:38;6.93;;;4.80;;
12348;SDS011;5974;42.710;27.258;2022-08-21T13:45:10;11.47;;;5.00;;
12348;SDS011;5974;42.710;27.258;2022-08-21T13:47:37;6.83;;;4.77;;
12348;SDS011;5974;42.710;27.258;2022-08-21T13:50:04;8.50;;;4.60;;
12348;SDS011;5974;42.710;27.258;2022-08-21T13:52:32;9.03;;;4.53;;
12348;SDS011;5974;42.710;27.258;2022-08-21T13:55:00;7.73;;;4.67;;
12348;SDS011;5974;42.710;27.258;2022-08-21T13:57:30;5.20;;;4.63;;
12348;SDS011;5974;42.710;27.258;2022-08-21T14:00:11;6.63;;;4.70;;
12348;SDS011;5974;42.710;27.258;2022-08-21T14:02:38;5.50;;;4.40;;
12348;SDS011;5974;42.710;27.258;2022-08-21T14:05:06;4.90;;;4.50;;
12348;SDS011;5974;42.710;27.258;2022-08-21T14:07:34;8.07;;;5.07;;
12348;SDS011;5974;42.710;27.258;2022-08-21T14:10:02;4.97;;;4.40;;
12348;SDS011;5974;42.710;27.258;2022-08-21T14:12:32;5.97;;;4.97;;
12348;SDS011;5974;42.710;27.258;2022-08-21T14:15:02;9.23;;;5.17;;
12348;SDS011;5974;42.710;27.258;2022-08-21T14:17:32;7.57;;;5.20;;
12348;SDS011;5974;42.710;27.258;2022-08-21T14:20:00;10.43;;;4.97;;
12348;SDS011;5974;42.710;27.258;2022-08-21T14:22:28;7.20;;;4.87;;
12348;SDS011;5974;42.710;27.258;2022-08-21T14:25:00;7.37;;;4.70;;
12348;SDS011;5974;42.710;27.258;2022-08-21T14:27:28;7.30;;;4.90;;
12348;SDS011;5974;42.710;27.258;2022-08-21T14:29:58;8.40;;;4.50;;
12348;SDS011;5974;42.710;27.258;2022-08-21T14:32:26;5.10;;;4.60;;
12348;SDS011;5974;42.710;27.258;2022-08-21T14:34:54;8.00;;;5.33;;
12348;SDS011;5974;42.710;27.258;2022-08-21T14:37:21;10.37;;;5.23;;
12348;SDS011;5974;42.710;27.258;2022-08-21T14:39:48;10.57;;;4.70;;
12348;SDS011;5974;42.710;27.258;2022-08-21T14:42:14;6.43;;;4.70;;
12348;SDS011;5974;42.710;27.258;2022-08-21T14:44:41;7.93;;;4.93;;
12348;SDS011;5974;42.710;27.258;2022-08-21T14:47:09;6.10;;;5.10;;
12348;SDS011;5974;42.710;27.258;2022-08-21T14:49:36;14.83;;;5.60;;